Time;durP1;ratioP1;P1;durP2;ratioP2;P2;SDS_P1;SDS_P2;PMS_P1;PMS_P2;Temp;Humidity;BMP_temperature;BMP_pressure;BME280_temperature;BME280_humidity;BME280_pressure;Samples;Min_cycle;Max_cycle;Signal;HPM_P1;HPM_P2
2024/03/19 00:00:16;;;;;;;;;;;;;;;;;;137221;1272;22661;-77
2024/03/19 00:03:37;;;;;;;;;;;;;;;;;;136960;1272;22559;-78
2024/03/19 00:06:39;;;;;;;;;;;;;;;;;;137165;1271;22516;-78
2024/03/19 00:09:40;;;;;;;;;;;;;;;;;;137536;1272;22558;-77
2024/03/19 00:12:41;;;;;;;;;;;;;;;;;;137054;1272;22555;-77
2024/03/19 00:15:44;;;;;;;;;;;;;;;;;;137071;1272;22535;-78
2024/03/19 00:18:45;;;;;;;;;;;;;;;;;;137680;1272;22510;-78
2024/03/19 00:21:47;;;;;;;;;;;;;;;;;;137095;1272;22562;-79
2024/03/19 00:24:50;;;;;;;;;;;;;;;;;;137075;1272;22504;-79
2024/03/19 00:27:52;;;;;;;;;;;;;;;;;;137350;1272;23773;-80
2024/03/19 00:30:54;;;;;;;;;;;;;;;;;;137238;1272;22549;-76
2024/03/19 00:33:55;;;;;;;;;;;;;;;;;;137106;1272;22978;-78
2024/03/19 00:36:56;;;;;;;;;;;;;;;;;;137094;1272;22522;-80
2024/03/19 00:39:57;;;;;;;;;;;;;;;;;;137509;1272;22543;-78
2024/03/19 00:42:59;;;;;;;;;;;;;;;;;;137090;1269;22547;-79
2024/03/19 00:46:00;;;;;;;;;;;;;;;;;;137019;1272;22540;-76
2024/03/19 00:49:02;;;;;;;;;;;;;;;;;;137589;1272;22517;-78
2024/03/19 00:52:03;;;;;;;;;;;;;;;;;;137044;1272;22538;-78
2024/03/19 00:55:05;;;;;;;;;;;;;;;;;;136809;1272;22652;-77
2024/03/19 00:58:06;;;;;;;;;;;;;;;;;;137533;1272;22522;-82
2024/03/19 01:01:07;;;;;;;;;;;;;;;;;;136917;1272;22579;-79
2024/03/19 01:04:08;;;;;;;;;;;;;;;;;;137031;1272;22658;-79
2024/03/19 01:07:09;;;;;;;;;;;;;;;;;;137488;1272;22549;-80
2024/03/19 01:10:11;;;;;;;;;;;;;;;;;;137313;1272;22526;-79
2024/03/19 01:13:12;;;;;;;;;;;;;;;;;;136965;1272;22541;-77
2024/03/19 01:16:13;;;;;;;;;;;;;;;;;;137237;1266;25221;-79
2024/03/19 01:19:14;;;;;;;;;;;;;;;;;;137523;1272;22638;-79
2024/03/19 01:22:15;;;;;;;;;;;;;;;;;;136939;1272;22519;-78
2024/03/19 01:25:17;;;;;;;;;;;;;;;;;;136894;1272;22552;-79
2024/03/19 01:28:18;;;;;;;;;;;;;;;;;;137718;1272;22888;-77
2024/03/19 01:31:19;;;;;;;;;;;;;;;;;;136992;1272;22533;-77
2024/03/19 01:34:20;;;;;;;;;;;;;;;;;;136790;1272;22529;-78
2024/03/19 01:37:21;;;;;;;;;;;;;;;;;;137647;1272;22532;-80
2024/03/19 01:40:22;;;;;;;;;;;;;;;;;;137189;1272;22914;-75
2024/03/19 01:43:23;;;;;;;;;;;;;;;;;;136994;1272;22502;-75
2024/03/19 01:46:25;;;;;;;;;;;;;;;;;;137306;1272;22605;-79
2024/03/19 01:49:26;;;;;;;;;;;;;;;;;;137340;1272;22514;-77
2024/03/19 01:52:27;;;;;;;;;;;;;;;;;;137003;1272;22963;-78
2024/03/19 01:55:28;;;;;;;;;;;;;;;;;;137104;1272;24226;-80
2024/03/19 01:58:30;;;;;;;;;;;;;;;;;;137592;1272;22521;-74
2024/03/19 02:01:31;;;;;;;;;;;;;;;;;;137078;1272;22594;-78
2024/03/19 02:04:32;;;;;;;;;;;;;;;;;;136947;1272;22520;-77
2024/03/19 02:07:34;;;;;;;;;;;;;;;;;;137492;1272;22517;-76
2024/03/19 02:10:35;;;;;;;;;;;;;;;;;;137050;1268;23023;-77
2024/03/19 02:13:36;;;;;;;;;;;;;;;;;;137021;1272;22508;-77
2024/03/19 02:16:37;;;;;;;;;;;;;;;;;;137397;1272;22524;-76
2024/03/19 02:19:38;;;;;;;;;;;;;;;;;;137297;1272;22511;-77
2024/03/19 02:22:39;;;;;;;;;;;;;;;;;;136904;1272;22547;-77
2024/03/19 02:25:41;;;;;;;;;;;;;;;;;;137466;1272;22571;-77
2024/03/19 02:28:42;;;;;;;;;;;;;;;;;;137425;1272;22504;-76
2024/03/19 02:31:43;;;;;;;;;;;;;;;;;;137099;1272;22548;-76
2024/03/19 02:34:44;;;;;;;;;;;;;;;;;;136991;1272;22573;-76
2024/03/19 02:37:45;;;;;;;;;;;;;;;;;;137377;1272;22536;-77
2024/03/19 02:40:47;;;;;;;;;;;;;;;;;;137151;1272;22506;-78
2024/03/19 02:43:48;;;;;;;;;;;;;;;;;;137028;1272;23022;-77
2024/03/19 02:46:49;;;;;;;;;;;;;;;;;;137465;1272;22591;-78
2024/03/19 02:49:50;;;;;;;;;;;;;;;;;;137194;1266;22559;-77
2024/03/19 02:52:51;;;;;;;;;;;;;;;;;;137088;1260;22504;-78
2024/03/19 02:55:52;;;;;;;;;;;;;;;;;;137371;1272;22553;-78
2024/03/19 02:58:53;;;;;;;;;;;;;;;;;;137343;1272;22503;-79
2024/03/19 03:01:56;;;;;;;;;;;;;;;;;;136964;1272;22510;-77
2024/03/19 03:04:57;;;;;;;;;;;;;;;;;;137085;1272;22515;-77
2024/03/19 03:07:58;;;;;;;;;;;;;;;;;;137629;1272;22507;-76
2024/03/19 03:10:59;;;;;;;;;;;;;;;;;;136917;1272;22547;-77
2024/03/19 03:14:00;;;;;;;;;;;;;;;;;;137067;1272;22542;-78
2024/03/19 03:17:01;;;;;;;;;;;;;;;;;;137578;1272;22539;-78
2024/03/19 03:20:07;;;;;;;;;;;;;;;;;;137034;1272;22535;-79
2024/03/19 03:23:09;;;;;;;;;;;;;;;;;;136968;1272;22500;-79
2024/03/19 03:26:10;;;;;;;;;;;;;;;;;;137548;1268;22515;-79
2024/03/19 03:29:12;;;;;;;;;;;;;;;;;;137238;1271;23484;-79
2024/03/19 03:32:13;;;;;;;;;;;;;;;;;;136952;1272;22523;-78
2024/03/19 03:35:15;;;;;;;;;;;;;;;;;;137283;1272;24882;-79
2024/03/19 03:38:16;;;;;;;;;;;;;;;;;;137417;1272;22543;-77
2024/03/19 03:41:17;;;;;;;;;;;;;;;;;;137018;1272;22494;-78
2024/03/19 03:44:18;;;;;;;;;;;;;;;;;;136988;1272;23024;-78
2024/03/19 03:47:19;;;;;;;;;;;;;;;;;;137693;1272;22349;-79
2024/03/19 03:50:20;;;;;;;;;;;;;;;;;;136856;1272;22553;-78
2024/03/19 03:53:21;;;;;;;;;;;;;;;;;;136957;1272;22516;-77
2024/03/19 03:56:22;;;;;;;;;;;;;;;;;;137483;1272;22524;-78
2024/03/19 03:59:23;;;;;;;;;;;;;;;;;;137146;1272;22870;-78
2024/03/19 04:02:24;;;;;;;;;;;;;;;;;;137075;1272;22932;-79
2024/03/19 04:05:28;;;;;;;;;;;;;;;;;;137353;1272;22514;-79
2024/03/19 04:08:29;;;;;;;;;;;;;;;;;;137390;1272;22643;-78
2024/03/19 04:11:30;;;;;;;;;;;;;;;;;;137002;1272;22502;-79
2024/03/19 04:14:32;;;;;;;;;;;;;;;;;;137305;1272;24286;-78
2024/03/19 04:17:33;;;;;;;;;;;;;;;;;;137727;1272;22581;-78
2024/03/19 04:20:34;;;;;;;;;;;;;;;;;;137022;1272;22540;-78
2024/03/19 04:23:35;;;;;;;;;;;;;;;;;;136932;1272;22564;-79
2024/03/19 04:26:38;;;;;;;;;;;;;;;;;;137605;1272;22963;-83
2024/03/19 04:29:39;;;;;;;;;;;;;;;;;;136964;1272;22521;-78
2024/03/19 04:32:40;;;;;;;;;;;;;;;;;;137004;1272;22509;-78
2024/03/19 04:35:41;;;;;;;;;;;;;;;;;;137305;1272;22551;-78
2024/03/19 04:38:42;;;;;;;;;;;;;;;;;;137178;1272;23174;-78
2024/03/19 04:41:43;;;;;;;;;;;;;;;;;;137025;1272;22823;-80
2024/03/19 04:44:47;;;;;;;;;;;;;;;;;;137177;1272;22544;-81
2024/03/19 04:47:48;;;;;;;;;;;;;;;;;;137476;1272;22983;-77
2024/03/19 04:50:49;;;;;;;;;;;;;;;;;;137587;1272;23085;-78
2024/03/19 04:53:50;;;;;;;;;;;;;;;;;;137534;1272;22643;-80
2024/03/19 04:56:51;;;;;;;;;;;;;;;;;;137718;1272;22800;-79
2024/03/19 04:59:52;;;;;;;;;;;;;;;;;;136769;1272;22518;-78
2024/03/19 05:02:53;;;;;;;;;;;;;;;;;;137184;1272;22919;-82
2024/03/19 05:05:54;;;;;;;;;;;;;;;;;;137638;1272;22317;-79
2024/03/19 05:08:55;;;;;;;;;;;;;;;;;;137334;1272;22498;-79
2024/03/19 05:11:56;;;;;;;;;;;;;;;;;;137655;1272;22347;-78
2024/03/19 05:14:58;;;;;;;;;;;;;;;;;;137686;1272;22356;-78
2024/03/19 05:17:59;;;;;;;;;;;;;;;;;;137647;1272;22323;-76
2024/03/19 05:21:00;;;;;;;;;;;;;;;;;;137686;1272;22311;-80
2024/03/19 05:24:01;;;;;;;;;;;;;;;;;;137665;1269;22369;-81
2024/03/19 05:27:02;;;;;;;;;;;;;;;;;;137618;1272;22336;-80
2024/03/19 05:30:03;;;;;;;;;;;;;;;;;;137643;1272;22916;-80
2024/03/19 05:33:05;;;;;;;;;;;;;;;;;;137648;1272;22362;-81
2024/03/19 05:36:06;;;;;;;;;;;;;;;;;;137637;1272;22334;-81
2024/03/19 05:39:09;;;;;;;;;;;;;;;;;;137691;1272;23109;-78
2024/03/19 05:42:11;;;;;;;;;;;;;;;;;;137687;1272;22329;-80
2024/03/19 05:45:12;;;;;;;;;;;;;;;;;;137655;1272;22859;-79
2024/03/19 05:48:13;;;;;;;;;;;;;;;;;;137644;1272;23103;-81
2024/03/19 05:51:15;;;;;;;;;;;;;;;;;;137645;1267;22347;-79
2024/03/19 05:54:16;;;;;;;;;;;;;;;;;;137676;1272;22299;-82
2024/03/19 05:57:17;;;;;;;;;;;;;;;;;;137253;1272;22508;-80
2024/03/19 06:00:21;;;;;;;;;;;;;;;;;;137650;1272;22351;-77
2024/03/19 06:03:22;;;;;;;;;;;;;;;;;;137685;1272;22362;-78
2024/03/19 06:06:24;;;;;;;;;;;;;;;;;;137646;1272;22331;-77
2024/03/19 06:09:25;;;;;;;;;;;;;;;;;;137664;1272;22448;-77
2024/03/19 06:12:26;;;;;;;;;;;;;;;;;;137663;1272;22343;-78
2024/03/19 06:15:27;;;;;;;;;;;;;;;;;;137648;1272;22364;-78
2024/03/19 06:18:28;;;;;;;;;;;;;;;;;;137704;1272;22353;-78
2024/03/19 06:21:30;;;;;;;;;;;;;;;;;;137653;1272;22875;-78
2024/03/19 06:24:31;;;;;;;;;;;;;;;;;;137555;1257;22750;-76
2024/03/19 06:27:32;;;;;;;;;;;;;;;;;;137597;1272;22415;-76
2024/03/19 06:30:33;;;;;;;;;;;;;;;;;;137616;1272;22302;-78
2024/03/19 06:33:34;;;;;;;;;;;;;;;;;;137629;1272;22467;-76
2024/03/19 06:36:36;;;;;;;;;;;;;;;;;;137603;1266;22325;-77
2024/03/19 06:39:38;;;;;;;;;;;;;;;;;;137607;1272;22303;-78
2024/03/19 06:42:39;;;;;;;;;;;;;;;;;;137646;1272;22764;-79
2024/03/19 06:45:40;;;;;;;;;;;;;;;;;;137580;1272;22491;-79
2024/03/19 06:48:45;;;;;;;;;;;;;;;;;;137655;1272;22371;-83
2024/03/19 06:51:46;;;;;;;;;;;;;;;;;;137413;1268;25843;-82
2024/03/19 06:54:47;;;;;;;;;;;;;;;;;;137531;1272;22548;-82
2024/03/19 06:57:48;;;;;;;;;;;;;;;;;;137394;1272;22524;-81
2024/03/19 07:00:51;;;;;;;;;;;;;;;;;;137665;1272;22346;-83
2024/03/19 07:03:52;;;;;;;;;;;;;;;;;;137658;1272;22329;-79
2024/03/19 07:06:54;;;;;;;;;;;;;;;;;;137664;1272;22258;-81
2024/03/19 07:09:56;;;;;;;;;;;;;;;;;;137575;1272;22506;-80
2024/03/19 07:12:57;;;;;;;;;;;;;;;;;;137360;1272;22556;-79
2024/03/19 07:15:59;;;;;;;;;;;;;;;;;;137399;1272;23038;-80
2024/03/19 07:19:00;;;;;;;;;;;;;;;;;;137645;1272;22897;-81
2024/03/19 07:22:01;;;;;;;;;;;;;;;;;;137690;1272;22343;-81
2024/03/19 07:25:04;;;;;;;;;;;;;;;;;;137659;1272;22277;-82
2024/03/19 07:28:06;;;;;;;;;;;;;;;;;;137667;1272;22436;-81
2024/03/19 07:31:08;;;;;;;;;;;;;;;;;;137202;1272;22616;-80
2024/03/19 07:34:09;;;;;;;;;;;;;;;;;;137450;1272;23044;-80
2024/03/19 07:37:11;;;;;;;;;;;;;;;;;;136938;1272;22556;-80
2024/03/19 07:40:13;;;;;;;;;;;;;;;;;;137210;1269;22500;-79
2024/03/19 07:43:14;;;;;;;;;;;;;;;;;;137480;1272;22593;-80
2024/03/19 07:46:16;;;;;;;;;;;;;;;;;;137058;1272;22557;-79
2024/03/19 07:49:17;;;;;;;;;;;;;;;;;;137082;1272;22529;-81
2024/03/19 07:52:18;;;;;;;;;;;;;;;;;;137680;1272;22303;-80
2024/03/19 07:55:20;;;;;;;;;;;;;;;;;;137628;1272;22320;-79
2024/03/19 07:58:21;;;;;;;;;;;;;;;;;;137637;1269;22299;-79
2024/03/19 08:01:23;;;;;;;;;;;;;;;;;;137629;1272;22311;-81
2024/03/19 08:04:24;;;;;;;;;;;;;;;;;;137607;1272;22341;-80
2024/03/19 08:07:25;;;;;;;;;;;;;;;;;;137635;1272;22307;-84
2024/03/19 08:10:26;;;;;;;;;;;;;;;;;;137625;1272;22352;-79
2024/03/19 08:13:28;;;;;;;;;;;;;;;;;;137558;1272;22437;-80
2024/03/19 08:16:29;;;;;;;;;;;;;;;;;;137575;1272;22428;-80
2024/03/19 08:19:30;;;;;;;;;;;;;;;;;;137574;1272;22710;-78
2024/03/19 08:22:31;;;;;;;;;;;;;;;;;;137466;1269;22413;-80
2024/03/19 08:25:33;;;;;;;;;;;;;;;;;;137629;1272;22393;-82
2024/03/19 08:28:34;;;;;;;;;;;;;;;;;;137483;1272;245564;-80
2024/03/19 08:31:35;;;;;;;;;;;;;;;;;;137615;1272;22759;-80
2024/03/19 08:34:37;;;;;;;;;;;;;;;;;;137546;1272;22313;-81
2024/03/19 08:37:38;;;;;;;;;;;;;;;;;;137594;1272;22335;-80
2024/03/19 08:40:40;;;;;;;;;;;;;;;;;;137363;1272;25208;-82
2024/03/19 08:43:45;;;;;;;;;;;;;;;;;;137456;1272;22479;-80
2024/03/19 08:46:47;;;;;;;;;;;;;;;;;;137628;1272;22295;-81
2024/03/19 08:49:48;;;;;;;;;;;;;;;;;;137582;1272;22380;-81
2024/03/19 08:52:49;;;;;;;;;;;;;;;;;;137623;1272;22404;-81
2024/03/19 08:55:50;;;;;;;;;;;;;;;;;;137666;1272;22313;-80
2024/03/19 08:58:51;;;;;;;;;;;;;;;;;;137640;1272;23204;-79
2024/03/19 09:01:52;;;;;;;;;;;;;;;;;;137632;1272;22336;-81
2024/03/19 09:04:54;;;;;;;;;;;;;;;;;;137603;1272;22429;-81
2024/03/19 09:07:55;;;;;;;;;;;;;;;;;;137603;1272;22326;-80
2024/03/19 09:10:57;;;;;;;;;;;;;;;;;;137576;1272;23196;-82
2024/03/19 09:13:58;;;;;;;;;;;;;;;;;;137576;1272;22432;-82
2024/03/19 09:16:59;;;;;;;;;;;;;;;;;;137603;1272;22317;-81
2024/03/19 09:20:05;;;;;;;;;;;;;;;;;;137594;1272;22350;-82
2024/03/19 09:23:06;;;;;;;;;;;;;;;;;;137585;1272;22279;-82
2024/03/19 09:26:10;;;;;;;;;;;;;;;;;;137578;1272;22323;-81
2024/03/19 09:29:13;;;;;;;;;;;;;;;;;;137558;1272;22406;-81
2024/03/19 09:32:15;;;;;;;;;;;;;;;;;;137630;1272;22313;-82
2024/03/19 09:35:16;;;;;;;;;;;;;;;;;;137626;1269;22284;-79
2024/03/19 09:38:19;;;;;;;;;;;;;;;;;;137583;1272;22378;-83
2024/03/19 09:41:20;;;;;;;;;;;;;;;;;;137642;1272;22268;-81
2024/03/19 09:44:21;;;;;;;;;;;;;;;;;;137636;1272;22379;-81
2024/03/19 09:47:23;;;;;;;;;;;;;;;;;;137638;1269;22259;-80
2024/03/19 09:50:25;;;;;;;;;;;;;;;;;;137577;1272;22286;-82
2024/03/19 09:53:26;;;;;;;;;;;;;;;;;;137654;1272;22355;-82
2024/03/19 09:56:31;;;;;;;;;;;;;;;;;;137647;1272;22822;-80
2024/03/19 09:59:32;;;;;;;;;;;;;;;;;;137685;1272;22289;-81
2024/03/19 10:02:33;;;;;;;;;;;;;;;;;;137709;1272;22320;-82
2024/03/19 10:05:34;;;;;;;;;;;;;;;;;;137696;1272;22326;-80
2024/03/19 10:08:35;;;;;;;;;;;;;;;;;;137656;1272;22506;-82
2024/03/19 10:11:37;;;;;;;;;;;;;;;;;;136868;1269;22507;-81
2024/03/19 10:14:38;;;;;;;;;;;;;;;;;;136726;1272;22527;-80
2024/03/19 10:17:39;;;;;;;;;;;;;;;;;;137715;1272;22307;-80
2024/03/19 10:20:42;;;;;;;;;;;;;;;;;;137735;1272;22279;-79
2024/03/19 10:23:43;;;;;;;;;;;;;;;;;;137719;1272;22336;-79
2024/03/19 10:26:44;;;;;;;;;;;;;;;;;;137690;1272;22360;-79
2024/03/19 10:29:46;;;;;;;;;;;;;;;;;;137748;1272;22328;-81
2024/03/19 10:32:49;;;;;;;;;;;;;;;;;;137696;1266;22353;-80
2024/03/19 10:35:50;;;;;;;;;;;;;;;;;;137653;1264;22315;-81
2024/03/19 10:38:51;;;;;;;;;;;;;;;;;;137677;1272;22441;-80
2024/03/19 10:41:53;;;;;;;;;;;;;;;;;;137649;1272;22980;-81
2024/03/19 10:44:56;;;;;;;;;;;;;;;;;;137654;1260;22400;-80
2024/03/19 10:48:00;;;;;;;;;;;;;;;;;;137580;1272;22425;-81
2024/03/19 10:51:01;;;;;;;;;;;;;;;;;;137650;1272;22353;-81
2024/03/19 10:54:03;;;;;;;;;;;;;;;;;;137647;1272;22280;-80
2024/03/19 10:57:05;;;;;;;;;;;;;;;;;;137602;1272;22264;-80
2024/03/19 11:00:12;;;;;;;;;;;;;;;;;;137646;1272;22314;-79
2024/03/19 11:03:15;;;;;;;;;;;;;;;;;;137616;1272;22414;-81
2024/03/19 11:06:16;;;;;;;;;;;;;;;;;;137678;1272;22416;-80
2024/03/19 11:09:22;;;;;;;;;;;;;;;;;;137690;1272;22339;-82
2024/03/19 11:12:23;;;;;;;;;;;;;;;;;;137679;1272;22896;-81
2024/03/19 11:15:24;;;;;;;;;;;;;;;;;;137333;1272;22917;-81
2024/03/19 11:18:27;;;;;;;;;;;;;;;;;;137548;1272;22525;-81
2024/03/19 11:21:28;;;;;;;;;;;;;;;;;;137671;1272;22302;-80
2024/03/19 11:24:33;;;;;;;;;;;;;;;;;;137382;1272;23124;-81
2024/03/19 11:27:35;;;;;;;;;;;;;;;;;;137619;1272;22373;-81
2024/03/19 11:30:36;;;;;;;;;;;;;;;;;;137669;1272;22421;-82
2024/03/19 11:33:38;;;;;;;;;;;;;;;;;;137673;1272;22435;-82
2024/03/19 11:36:39;;;;;;;;;;;;;;;;;;137626;1272;22442;-80
2024/03/19 11:39:40;;;;;;;;;;;;;;;;;;137659;1272;22900;-80
2024/03/19 11:42:41;;;;;;;;;;;;;;;;;;137703;1272;22783;-81
2024/03/19 11:45:42;;;;;;;;;;;;;;;;;;137646;1261;22388;-80
2024/03/19 11:48:43;;;;;;;;;;;;;;;;;;137637;1272;22324;-80
2024/03/19 11:51:45;;;;;;;;;;;;;;;;;;137647;1264;22323;-80
2024/03/19 11:54:46;;;;;;;;;;;;;;;;;;137663;1263;22397;-83
2024/03/19 11:57:48;;;;;;;;;;;;;;;;;;137603;1257;22512;-85
2024/03/19 12:00:51;;;;;;;;;;;;;;;;;;137320;1272;22492;-83
2024/03/19 12:03:52;;;;;;;;;;;;;;;;;;137373;1272;22482;-85
2024/03/19 12:06:54;;;;;;;;;;;;;;;;;;137671;1272;22264;-85
2024/03/19 12:09:55;;;;;;;;;;;;;;;;;;137601;1272;22348;-83
2024/03/19 12:12:57;;;;;;;;;;;;;;;;;;137656;1272;23192;-83
2024/03/19 12:15:58;;;;;;;;;;;;;;;;;;137375;1272;22968;-81
2024/03/19 12:18:59;;;;;;;;;;;;;;;;;;137592;1272;22916;-82
2024/03/19 12:22:01;;;;;;;;;;;;;;;;;;137626;1272;22661;-85
2024/03/19 12:25:05;;;;;;;;;;;;;;;;;;137646;1272;22670;-84
2024/03/19 12:28:07;;;;;;;;;;;;;;;;;;137611;1272;22557;-81
2024/03/19 12:31:08;;;;;;;;;;;;;;;;;;137662;1272;22563;-81
2024/03/19 12:34:27;;;;;;;;;;;;;;;;;;137653;1272;22393;-80
2024/03/19 12:37:28;;;;;;;;;;;;;;;;;;136986;1272;23057;-81
2024/03/19 12:40:30;;;;;;;;;;;;;;;;;;137527;1272;22496;-81
2024/03/19 12:43:32;;;;;;;;;;;;;;;;;;137426;1272;23346;-81
2024/03/19 12:46:36;;;;;;;;;;;;;;;;;;137474;1272;22482;-80
2024/03/19 12:49:40;;;;;;;;;;;;;;;;;;137650;1272;22723;-80
2024/03/19 12:52:42;;;;;;;;;;;;;;;;;;137634;1272;22486;-79
2024/03/19 12:55:43;;;;;;;;;;;;;;;;;;136491;1272;22550;-79
2024/03/19 12:58:44;;;;;;;;;;;;;;;;;;136975;1272;22519;-79
2024/03/19 13:01:46;;;;;;;;;;;;;;;;;;137643;1272;22289;-80
2024/03/19 13:04:47;;;;;;;;;;;;;;;;;;136841;1272;22524;-79
2024/03/19 13:07:50;;;;;;;;;;;;;;;;;;137658;1272;22337;-79
2024/03/19 13:10:51;;;;;;;;;;;;;;;;;;137709;1272;22303;-80
2024/03/19 13:13:53;;;;;;;;;;;;;;;;;;137627;1272;22356;-83
2024/03/19 13:17:04;;;;;;;;;;;;;;;;;;137572;1272;22429;-81
2024/03/19 13:20:06;;;;;;;;;;;;;;;;;;137587;1272;22393;-81
2024/03/19 13:23:09;;;;;;;;;;;;;;;;;;137521;1272;23331;-81
2024/03/19 13:26:10;;;;;;;;;;;;;;;;;;137544;1268;22322;-81
2024/03/19 13:29:11;;;;;;;;;;;;;;;;;;137557;1272;22302;-80
2024/03/19 13:32:12;;;;;;;;;;;;;;;;;;137522;1272;22694;-81
2024/03/19 13:35:14;;;;;;;;;;;;;;;;;;137556;1272;22323;-80
2024/03/19 13:38:15;;;;;;;;;;;;;;;;;;137617;1266;23109;-81
2024/03/19 13:41:16;;;;;;;;;;;;;;;;;;137625;1272;22341;-82
2024/03/19 13:44:17;;;;;;;;;;;;;;;;;;137687;1272;22473;-81
2024/03/19 13:47:18;;;;;;;;;;;;;;;;;;137684;1272;22324;-82
2024/03/19 13:50:20;;;;;;;;;;;;;;;;;;137663;1272;22749;-81
2024/03/19 13:53:21;;;;;;;;;;;;;;;;;;137686;1272;22306;-81
2024/03/19 13:56:22;;;;;;;;;;;;;;;;;;137659;1257;22288;-82
2024/03/19 13:59:23;;;;;;;;;;;;;;;;;;137634;1272;22338;-81
2024/03/19 14:02:26;;;;;;;;;;;;;;;;;;137666;1272;22673;-83
2024/03/19 14:05:32;;;;;;;;;;;;;;;;;;137554;1272;22383;-82
2024/03/19 14:08:35;;;;;;;;;;;;;;;;;;137663;1272;22820;-80
2024/03/19 14:11:36;;;;;;;;;;;;;;;;;;137486;1272;22411;-83
2024/03/19 14:14:37;;;;;;;;;;;;;;;;;;137646;1269;22440;-81
2024/03/19 14:17:39;;;;;;;;;;;;;;;;;;137610;1272;22575;-81
2024/03/19 14:20:41;;;;;;;;;;;;;;;;;;137620;1272;23122;-82
2024/03/19 14:23:42;;;;;;;;;;;;;;;;;;137615;1272;23318;-80
2024/03/19 14:26:45;;;;;;;;;;;;;;;;;;137642;1272;22340;-79
2024/03/19 14:29:47;;;;;;;;;;;;;;;;;;137642;1272;22261;-81
2024/03/19 14:32:48;;;;;;;;;;;;;;;;;;137674;1272;22490;-81
2024/03/19 14:35:50;;;;;;;;;;;;;;;;;;137543;1272;22588;-82
2024/03/19 14:38:52;;;;;;;;;;;;;;;;;;137703;1272;22227;-82
2024/03/19 14:41:53;;;;;;;;;;;;;;;;;;137662;1272;22356;-83
2024/03/19 14:44:56;;;;;;;;;;;;;;;;;;137707;1272;22488;-81
2024/03/19 14:47:57;;;;;;;;;;;;;;;;;;137499;1272;22637;-80
2024/03/19 14:50:58;;;;;;;;;;;;;;;;;;137656;1272;23138;-82
2024/03/19 14:54:00;;;;;;;;;;;;;;;;;;137710;1272;22863;-82
2024/03/19 14:57:01;;;;;;;;;;;;;;;;;;137610;1272;22540;-81
2024/03/19 15:00:04;;;;;;;;;;;;;;;;;;137545;1272;22523;-81
2024/03/19 15:03:06;;;;;;;;;;;;;;;;;;137719;1272;22310;-81
2024/03/19 15:06:07;;;;;;;;;;;;;;;;;;137687;1272;22428;-83
2024/03/19 15:09:09;;;;;;;;;;;;;;;;;;137656;1272;22485;-82
2024/03/19 15:12:12;;;;;;;;;;;;;;;;;;137690;1272;22332;-80
2024/03/19 15:15:14;;;;;;;;;;;;;;;;;;137675;1272;22922;-81
2024/03/19 15:18:15;;;;;;;;;;;;;;;;;;137671;1272;22347;-82
2024/03/19 15:21:16;;;;;;;;;;;;;;;;;;137682;1264;22320;-82
2024/03/19 15:24:18;;;;;;;;;;;;;;;;;;137507;1272;22573;-83
2024/03/19 15:27:19;;;;;;;;;;;;;;;;;;137483;1269;22516;-82
2024/03/19 15:30:20;;;;;;;;;;;;;;;;;;137421;1268;22538;-82
2024/03/19 15:33:21;;;;;;;;;;;;;;;;;;137381;1272;22853;-82
2024/03/19 15:36:22;;;;;;;;;;;;;;;;;;137170;1272;22511;-81
2024/03/19 15:39:24;;;;;;;;;;;;;;;;;;137715;1272;22416;-81
2024/03/19 15:42:25;;;;;;;;;;;;;;;;;;136947;1272;23091;-81
2024/03/19 15:45:26;;;;;;;;;;;;;;;;;;137025;1272;23082;-80
2024/03/19 15:48:27;;;;;;;;;;;;;;;;;;137683;1272;23008;-80
2024/03/19 15:51:28;;;;;;;;;;;;;;;;;;137027;1272;22494;-79
2024/03/19 15:54:30;;;;;;;;;;;;;;;;;;136846;1272;22542;-79
2024/03/19 15:57:31;;;;;;;;;;;;;;;;;;137501;1272;25949;-78
2024/03/19 16:00:33;;;;;;;;;;;;;;;;;;137326;1272;22911;-78
2024/03/19 16:03:34;;;;;;;;;;;;;;;;;;137428;1272;23010;-78
2024/03/19 16:06:35;;;;;;;;;;;;;;;;;;137532;1272;22547;-77
2024/03/19 16:09:36;;;;;;;;;;;;;;;;;;137404;1272;22524;-78
2024/03/19 16:12:38;;;;;;;;;;;;;;;;;;137325;1272;22577;-80
2024/03/19 16:15:39;;;;;;;;;;;;;;;;;;137250;1272;22524;-79
2024/03/19 16:18:40;;;;;;;;;;;;;;;;;;137709;1272;22379;-80
2024/03/19 16:21:41;;;;;;;;;;;;;;;;;;137008;1272;22474;-80
2024/03/19 16:24:43;;;;;;;;;;;;;;;;;;137088;1272;22646;-79
2024/03/19 16:27:44;;;;;;;;;;;;;;;;;;136316;1272;22584;-78
2024/03/19 16:30:45;;;;;;;;;;;;;;;;;;136806;1272;22495;-78
2024/03/19 16:33:46;;;;;;;;;;;;;;;;;;136976;1272;22485;-78
2024/03/19 16:36:47;;;;;;;;;;;;;;;;;;137704;1272;22315;-79
2024/03/19 16:39:49;;;;;;;;;;;;;;;;;;137336;1272;22580;-78
2024/03/19 16:42:50;;;;;;;;;;;;;;;;;;137222;1272;22595;-78
2024/03/19 16:45:51;;;;;;;;;;;;;;;;;;137341;1272;23214;-80
2024/03/19 16:48:52;;;;;;;;;;;;;;;;;;137387;1272;22533;-81
2024/03/19 16:51:53;;;;;;;;;;;;;;;;;;137001;1272;22626;-79
2024/03/19 16:54:57;;;;;;;;;;;;;;;;;;137728;1272;22842;-79
2024/03/19 16:57:59;;;;;;;;;;;;;;;;;;137692;1272;22333;-80
2024/03/19 17:01:00;;;;;;;;;;;;;;;;;;136876;1272;22557;-80
2024/03/19 17:04:01;;;;;;;;;;;;;;;;;;137044;1272;22511;-81
2024/03/19 17:07:02;;;;;;;;;;;;;;;;;;137454;1272;23915;-81
2024/03/19 17:10:03;;;;;;;;;;;;;;;;;;136907;1272;23023;-82
2024/03/19 17:13:08;;;;;;;;;;;;;;;;;;136889;1272;22528;-83
2024/03/19 17:16:09;;;;;;;;;;;;;;;;;;137396;1272;22536;-81
2024/03/19 17:19:10;;;;;;;;;;;;;;;;;;137281;1272;22919;-82
2024/03/19 17:22:12;;;;;;;;;;;;;;;;;;136952;1272;23342;-82
2024/03/19 17:25:13;;;;;;;;;;;;;;;;;;137015;1269;22636;-82
2024/03/19 17:28:14;;;;;;;;;;;;;;;;;;137649;1269;22951;-80
2024/03/19 17:31:15;;;;;;;;;;;;;;;;;;136994;1272;22503;-79
2024/03/19 17:34:17;;;;;;;;;;;;;;;;;;137731;1272;22279;-79
2024/03/19 17:37:18;;;;;;;;;;;;;;;;;;137694;1272;22294;-80
2024/03/19 17:40:19;;;;;;;;;;;;;;;;;;137198;1272;22546;-81
2024/03/19 17:43:20;;;;;;;;;;;;;;;;;;137674;1272;22433;-79
2024/03/19 17:46:21;;;;;;;;;;;;;;;;;;137684;1272;22349;-80
2024/03/19 17:49:23;;;;;;;;;;;;;;;;;;137744;1272;22363;-81
2024/03/19 17:52:27;;;;;;;;;;;;;;;;;;137401;1272;23032;-79
2024/03/19 17:55:28;;;;;;;;;;;;;;;;;;137710;1272;22752;-78
2024/03/19 17:58:30;;;;;;;;;;;;;;;;;;137619;1272;22499;-79
2024/03/19 18:01:31;;;;;;;;;;;;;;;;;;137058;1272;22514;-79
2024/03/19 18:04:32;;;;;;;;;;;;;;;;;;137722;1272;22308;-80
2024/03/19 18:07:33;;;;;;;;;;;;;;;;;;137705;1272;22327;-80
2024/03/19 18:10:34;;;;;;;;;;;;;;;;;;137281;1272;22502;-79
2024/03/19 18:13:35;;;;;;;;;;;;;;;;;;137747;1272;22462;-79
2024/03/19 18:16:37;;;;;;;;;;;;;;;;;;137485;1272;22997;-79
2024/03/19 18:19:38;;;;;;;;;;;;;;;;;;136959;1272;22576;-80
2024/03/19 18:22:39;;;;;;;;;;;;;;;;;;137015;1272;22577;-79
2024/03/19 18:25:49;;;;;;;;;;;;;;;;;;137607;1272;22528;-79
2024/03/19 18:28:50;;;;;;;;;;;;;;;;;;137745;1272;22384;-79
2024/03/19 18:31:51;;;;;;;;;;;;;;;;;;137071;1272;22503;-80
2024/03/19 18:34:52;;;;;;;;;;;;;;;;;;137464;1272;22557;-79
2024/03/19 18:37:55;;;;;;;;;;;;;;;;;;137097;1272;22517;-80
2024/03/19 18:40:56;;;;;;;;;;;;;;;;;;137176;1272;23002;-80
2024/03/19 18:43:58;;;;;;;;;;;;;;;;;;137414;1272;22518;-78
2024/03/19 18:46:59;;;;;;;;;;;;;;;;;;137346;1264;22594;-79
2024/03/19 18:50:01;;;;;;;;;;;;;;;;;;137731;1272;22387;-78
2024/03/19 18:53:02;;;;;;;;;;;;;;;;;;137671;1272;22350;-79
2024/03/19 18:56:03;;;;;;;;;;;;;;;;;;137687;1272;22761;-79
2024/03/19 18:59:04;;;;;;;;;;;;;;;;;;136933;1272;22506;-79
2024/03/19 19:02:06;;;;;;;;;;;;;;;;;;137047;1272;22530;-79
2024/03/19 19:05:08;;;;;;;;;;;;;;;;;;137640;1272;22347;-79
2024/03/19 19:08:09;;;;;;;;;;;;;;;;;;136949;1272;22494;-79
2024/03/19 19:11:10;;;;;;;;;;;;;;;;;;136942;1272;22501;-80
2024/03/19 19:14:12;;;;;;;;;;;;;;;;;;137351;1272;22651;-79
2024/03/19 19:17:13;;;;;;;;;;;;;;;;;;137287;1272;22493;-79
2024/03/19 19:20:14;;;;;;;;;;;;;;;;;;137188;1272;22496;-78
2024/03/19 19:23:15;;;;;;;;;;;;;;;;;;137354;1272;22515;-78
2024/03/19 19:26:19;;;;;;;;;;;;;;;;;;137362;1272;22679;-79
2024/03/19 19:29:21;;;;;;;;;;;;;;;;;;137032;1272;22608;-79
2024/03/19 19:32:22;;;;;;;;;;;;;;;;;;136846;1272;22529;-77
2024/03/19 19:35:24;;;;;;;;;;;;;;;;;;137521;1272;22703;-79
2024/03/19 19:38:25;;;;;;;;;;;;;;;;;;137106;1272;22503;-81
2024/03/19 19:41:26;;;;;;;;;;;;;;;;;;137530;1272;22548;-76
2024/03/19 19:44:27;;;;;;;;;;;;;;;;;;137494;1272;22529;-80
2024/03/19 19:47:29;;;;;;;;;;;;;;;;;;137090;1272;22944;-80
2024/03/19 19:50:30;;;;;;;;;;;;;;;;;;136844;1272;23318;-80
2024/03/19 19:53:31;;;;;;;;;;;;;;;;;;137282;1272;22529;-80
2024/03/19 19:56:32;;;;;;;;;;;;;;;;;;137262;1272;23018;-80
2024/03/19 19:59:37;;;;;;;;;;;;;;;;;;137028;1272;22602;-79
2024/03/19 20:02:38;;;;;;;;;;;;;;;;;;136946;1272;24197;-79
2024/03/19 20:05:39;;;;;;;;;;;;;;;;;;137662;1272;22488;-80
2024/03/19 20:08:40;;;;;;;;;;;;;;;;;;137109;1272;22508;-80
2024/03/19 20:11:41;;;;;;;;;;;;;;;;;;136950;1272;23012;-79
2024/03/19 20:14:42;;;;;;;;;;;;;;;;;;137724;1272;22398;-80
2024/03/19 20:17:43;;;;;;;;;;;;;;;;;;137017;1272;23010;-79